Time;durP1;ratioP1;P1;durP2;ratioP2;P2;SDS_P1;SDS_P2;PMS_P1;PMS_P2;Temp;Humidity;BMP_temperature;BMP_pressure;BME280_temperature;BME280_humidity;BME280_pressure;Samples;Min_cycle;Max_cycle;Signal;HPM_P1;HPM_P2
2021/01/10 00:00:34;;;;;;;25.63;14.02;;;;;;;;;;6332187;22;19995;-77
2021/01/10 00:03:00;;;;;;;23.02;13.05;;;;;;;;;;6331944;22;20009;-78
2021/01/10 00:05:28;;;;;;;26.98;14.02;;;;;;;;;;6331764;22;20006;-78
2021/01/10 00:07:55;;;;;;;23.70;13.95;;;;;;;;;;6331587;22;20073;-79
2021/01/10 00:10:21;;;;;;;27.05;14.38;;;;;;;;;;6330019;22;20497;-79
2021/01/10 00:12:47;;;;;;;25.45;14.07;;;;;;;;;;6330976;22;20025;-79
2021/01/10 00:15:15;;;;;;;25.55;14.23;;;;;;;;;;6328284;22;19999;-79
2021/01/10 00:17:43;;;;;;;27.52;13.52;;;;;;;;;;6330167;22;20335;-78
2021/01/10 00:20:10;;;;;;;25.42;14.15;;;;;;;;;;6330293;22;20089;-77
2021/01/10 00:22:36;;;;;;;22.63;12.13;;;;;;;;;;6329822;22;20010;-79
2021/01/10 00:25:06;;;;;;;28.67;15.38;;;;;;;;;;6329050;22;20010;-79
2021/01/10 00:27:32;;;;;;;27.20;14.57;;;;;;;;;;6330399;22;20006;-77
2021/01/10 00:29:59;;;;;;;30.13;16.33;;;;;;;;;;6329933;22;20003;-79
2021/01/10 00:32:25;;;;;;;28.13;15.45;;;;;;;;;;6331234;22;20075;-79
2021/01/10 00:34:51;;;;;;;26.80;15.48;;;;;;;;;;6331017;22;20019;-79
2021/01/10 00:37:18;;;;;;;25.38;14.85;;;;;;;;;;6330223;22;20002;-79
2021/01/10 00:39:45;;;;;;;26.88;15.27;;;;;;;;;;6331547;22;20638;-79
2021/01/10 00:42:14;;;;;;;29.25;14.65;;;;;;;;;;6329449;22;20344;-78
2021/01/10 00:44:44;;;;;;;28.10;15.30;;;;;;;;;;6329341;22;20082;-79
2021/01/10 00:47:11;;;;;;;27.75;14.25;;;;;;;;;;6331669;22;20003;-79
2021/01/10 00:49:37;;;;;;;25.10;14.43;;;;;;;;;;6329956;22;20105;-79
2021/01/10 00:52:03;;;;;;;24.90;14.18;;;;;;;;;;6331240;22;20034;-79
2021/01/10 00:54:29;;;;;;;27.13;14.45;;;;;;;;;;6331056;22;20022;-79
2021/01/10 00:56:55;;;;;;;23.90;13.98;;;;;;;;;;6330261;22;20006;-78
2021/01/10 00:59:22;;;;;;;20.52;11.93;;;;;;;;;;6329836;22;20006;-79
2021/01/10 01:01:48;;;;;;;23.27;11.88;;;;;;;;;;6331286;22;20074;-79
2021/01/10 01:04:14;;;;;;;21.70;11.68;;;;;;;;;;6329157;22;20007;-79
2021/01/10 01:06:40;;;;;;;23.25;12.75;;;;;;;;;;6329764;22;20007;-78
2021/01/10 01:09:07;;;;;;;22.13;12.07;;;;;;;;;;6331889;22;20013;-79
2021/01/10 01:11:35;;;;;;;22.67;12.57;;;;;;;;;;6331504;22;20010;-79
2021/01/10 01:14:01;;;;;;;22.73;12.82;;;;;;;;;;6330668;22;20384;-78
2021/01/10 01:16:27;;;;;;;22.05;12.52;;;;;;;;;;6329562;22;20581;-79
2021/01/10 01:18:53;;;;;;;22.67;13.05;;;;;;;;;;6331670;22;20078;-79
2021/01/10 01:21:20;;;;;;;23.27;13.30;;;;;;;;;;6329683;22;20060;-79
2021/01/10 01:23:46;;;;;;;23.00;13.30;;;;;;;;;;6329883;22;20037;-79
2021/01/10 01:26:19;;;;;;;23.20;12.98;;;;;;;;;;6329222;22;20676;-79
2021/01/10 01:28:45;;;;;;;24.20;13.13;;;;;;;;;;6328715;22;20486;-78
2021/01/10 01:31:12;;;;;;;24.25;13.70;;;;;;;;;;6331416;22;20001;-79
2021/01/10 01:33:38;;;;;;;24.52;13.15;;;;;;;;;;6331379;22;20460;-79
2021/01/10 01:36:05;;;;;;;24.75;13.95;;;;;;;;;;6328951;22;20003;-78
2021/01/10 01:38:31;;;;;;;23.42;13.63;;;;;;;;;;6331491;22;19998;-78
2021/01/10 01:41:00;;;;;;;23.67;13.60;;;;;;;;;;6331156;22;20074;-79
2021/01/10 01:43:26;;;;;;;22.27;13.00;;;;;;;;;;6330917;22;20082;-79
2021/01/10 01:45:53;;;;;;;23.00;12.70;;;;;;;;;;6328518;22;20007;-79
2021/01/10 01:48:19;;;;;;;23.25;12.57;;;;;;;;;;6331603;22;20006;-79
2021/01/10 01:50:45;;;;;;;22.20;12.88;;;;;;;;;;6331112;22;20513;-79
2021/01/10 01:53:11;;;;;;;23.50;13.32;;;;;;;;;;6303533;22;20002;-77
2021/01/10 01:55:38;;;;;;;23.60;13.95;;;;;;;;;;6330682;22;19995;-78
2021/01/10 01:58:07;;;;;;;22.02;12.40;;;;;;;;;;6302894;22;19995;-79
2021/01/10 02:00:33;;;;;;;23.50;13.02;;;;;;;;;;6330895;22;20332;-78
2021/01/10 02:02:59;;;;;;;26.17;14.07;;;;;;;;;;6331380;22;20022;-78
2021/01/10 02:05:26;;;;;;;24.05;13.43;;;;;;;;;;6302672;22;20510;-79
2021/01/10 02:08:09;;;;;;;27.17;13.65;;;;;;;;;;6330883;22;20002;-79
2021/01/10 02:10:37;;;;;;;25.08;13.90;;;;;;;;;;6303575;22;20034;-78
2021/01/10 02:13:07;;;;;;;24.02;13.40;;;;;;;;;;6330650;22;20006;-78
2021/01/10 02:15:34;;;;;;;24.33;13.75;;;;;;;;;;6302524;22;20022;-79
2021/01/10 02:18:01;;;;;;;24.15;13.38;;;;;;;;;;6296460;22;20052;-79
2021/01/10 02:20:32;;;;;;;24.55;14.35;;;;;;;;;;6330915;22;19999;-79
2021/01/10 02:23:05;;;;;;;23.35;12.80;;;;;;;;;;6302832;22;20431;-79
2021/01/10 02:25:33;;;;;;;25.13;13.68;;;;;;;;;;6330610;22;20029;-79
2021/01/10 02:28:00;;;;;;;26.27;13.88;;;;;;;;;;6303788;22;20064;-79
2021/01/10 02:30:26;;;;;;;19.43;10.80;;;;;;;;;;6331059;22;20081;-79
2021/01/10 02:32:56;;;;;;;27.85;14.05;;;;;;;;;;6303472;22;20245;-79
2021/01/10 02:35:22;;;;;;;23.92;13.23;;;;;;;;;;6330112;22;20108;-78
2021/01/10 02:38:07;;;;;;;23.43;13.33;;;;;;;;;;6303491;22;20128;-79
2021/01/10 02:40:39;;;;;;;22.20;12.88;;;;;;;;;;6331364;22;19995;-79
2021/01/10 02:43:14;;;;;;;25.13;13.45;;;;;;;;;;6303868;22;20463;-79
2021/01/10 02:45:41;;;;;;;25.63;14.27;;;;;;;;;;6302519;22;20065;-79
2021/01/10 02:48:08;;;;;;;24.42;12.57;;;;;;;;;;6303320;22;20412;-79
2021/01/10 02:50:34;;;;;;;23.80;13.35;;;;;;;;;;6330758;22;20038;-79
2021/01/10 02:53:00;;;;;;;23.33;13.32;;;;;;;;;;6302377;22;20358;-79
2021/01/10 02:55:26;;;;;;;23.27;13.50;;;;;;;;;;6329748;22;20010;-79
2021/01/10 02:58:01;;;;;;;28.67;14.00;;;;;;;;;;6330646;22;20003;-79
2021/01/10 03:00:28;;;;;;;25.25;13.75;;;;;;;;;;6330304;22;20066;-79
2021/01/10 03:02:54;;;;;;;23.00;13.55;;;;;;;;;;6334360;22;20438;-79
2021/01/10 03:05:21;;;;;;;24.40;13.25;;;;;;;;;;6304843;22;20003;-79
2021/01/10 03:07:47;;;;;;;24.67;13.80;;;;;;;;;;6333956;22;20018;-79
2021/01/10 03:10:14;;;;;;;24.58;14.40;;;;;;;;;;6333931;22;20305;-78
2021/01/10 03:12:40;;;;;;;25.88;14.05;;;;;;;;;;6334955;22;20033;-79
2021/01/10 03:15:08;;;;;;;25.25;14.52;;;;;;;;;;6307219;22;19999;-78
2021/01/10 03:17:34;;;;;;;22.65;12.88;;;;;;;;;;6336160;22;20303;-79
2021/01/10 03:20:00;;;;;;;25.60;13.95;;;;;;;;;;6335729;22;20396;-79
2021/01/10 03:22:27;;;;;;;23.38;14.20;;;;;;;;;;6335701;22;20456;-79
2021/01/10 03:24:53;;;;;;;24.30;13.50;;;;;;;;;;6307572;22;20003;-78
2021/01/10 03:27:19;;;;;;;23.77;13.45;;;;;;;;;;6335605;22;20454;-79
2021/01/10 03:29:45;;;;;;;26.00;14.65;;;;;;;;;;6308014;22;20010;-79
2021/01/10 03:32:11;;;;;;;24.90;14.70;;;;;;;;;;6307876;22;20037;-78
2021/01/10 03:34:37;;;;;;;23.75;13.02;;;;;;;;;;6307251;22;20135;-78
2021/01/10 03:37:04;;;;;;;26.38;13.85;;;;;;;;;;6308051;22;20068;-78
2021/01/10 03:39:30;;;;;;;22.77;12.93;;;;;;;;;;6335932;22;19995;-78
2021/01/10 03:41:57;;;;;;;26.33;14.70;;;;;;;;;;6307974;22;20014;-79
2021/01/10 03:44:23;;;;;;;25.23;14.18;;;;;;;;;;6334719;22;20010;-79
2021/01/10 03:46:49;;;;;;;28.70;14.75;;;;;;;;;;6308169;22;20006;-79
2021/01/10 03:49:15;;;;;;;24.80;13.82;;;;;;;;;;6335258;22;19999;-79
2021/01/10 03:51:41;;;;;;;22.92;13.02;;;;;;;;;;6307525;22;20014;-79
2021/01/10 03:54:07;;;;;;;22.65;12.70;;;;;;;;;;6334816;22;20020;-79
2021/01/10 03:56:33;;;;;;;26.38;13.45;;;;;;;;;;6307752;22;19999;-79
2021/01/10 03:58:59;;;;;;;22.83;13.57;;;;;;;;;;6335381;22;20062;-79
2021/01/10 04:01:25;;;;;;;23.25;13.40;;;;;;;;;;6335477;22;20019;-79
2021/01/10 04:03:51;;;;;;;23.08;12.27;;;;;;;;;;6304561;22;20521;-79
2021/01/10 04:06:17;;;;;;;23.45;13.15;;;;;;;;;;6331569;22;20079;-79
2021/01/10 04:08:46;;;;;;;19.70;11.32;;;;;;;;;;6333126;22;20323;-79
2021/01/10 04:11:12;;;;;;;23.35;12.38;;;;;;;;;;6304587;22;20022;-78
2021/01/10 04:13:38;;;;;;;22.83;12.45;;;;;;;;;;6331437;22;20010;-78
2021/01/10 04:16:04;;;;;;;21.90;12.25;;;;;;;;;;6304237;22;20003;-79
2021/01/10 04:18:30;;;;;;;24.58;13.57;;;;;;;;;;6302544;22;20010;-78
2021/01/10 04:20:56;;;;;;;23.42;11.65;;;;;;;;;;6304300;22;20003;-79
2021/01/10 04:23:22;;;;;;;22.75;12.32;;;;;;;;;;6331934;22;20017;-79
2021/01/10 04:25:49;;;;;;;22.70;12.52;;;;;;;;;;6330798;22;20006;-79
2021/01/10 04:28:15;;;;;;;22.45;12.55;;;;;;;;;;6303076;22;20080;-79
2021/01/10 04:30:41;;;;;;;22.08;12.50;;;;;;;;;;6304416;22;20007;-79
2021/01/10 04:33:07;;;;;;;20.00;12.25;;;;;;;;;;6331622;22;20003;-79
2021/01/10 04:35:33;;;;;;;21.50;12.13;;;;;;;;;;6303682;22;20002;-79
2021/01/10 04:37:59;;;;;;;19.65;11.57;;;;;;;;;;6304302;22;19995;-79
2021/01/10 04:40:26;;;;;;;21.33;12.80;;;;;;;;;;6332112;22;19998;-79
2021/01/10 04:42:52;;;;;;;25.13;12.57;;;;;;;;;;6304008;22;20010;-79
2021/01/10 04:45:18;;;;;;;23.40;12.65;;;;;;;;;;6303727;22;20395;-79
2021/01/10 04:47:44;;;;;;;22.40;12.18;;;;;;;;;;6303999;22;20003;-79
2021/01/10 04:50:11;;;;;;;20.60;11.95;;;;;;;;;;6331879;22;20017;-79
2021/01/10 04:52:38;;;;;;;20.80;12.10;;;;;;;;;;6303861;22;20014;-79
2021/01/10 04:55:05;;;;;;;19.08;11.90;;;;;;;;;;6331205;22;20075;-79
2021/01/10 04:57:33;;;;;;;19.63;10.60;;;;;;;;;;6332335;22;19999;-79
2021/01/10 04:59:59;;;;;;;20.30;11.48;;;;;;;;;;6331654;22;20649;-79
2021/01/10 05:02:26;;;;;;;25.45;13.02;;;;;;;;;;6303614;22;20007;-78
2021/01/10 05:04:53;;;;;;;20.45;12.10;;;;;;;;;;6303446;22;19999;-79
2021/01/10 05:07:19;;;;;;;22.17;12.70;;;;;;;;;;6331911;22;20013;-79
2021/01/10 05:09:46;;;;;;;21.98;13.07;;;;;;;;;;6304040;22;20010;-79
2021/01/10 05:12:12;;;;;;;19.90;11.32;;;;;;;;;;6304016;22;20014;-79
2021/01/10 05:14:38;;;;;;;22.95;12.70;;;;;;;;;;6330728;22;20006;-79
2021/01/10 05:17:04;;;;;;;21.17;12.07;;;;;;;;;;6303929;22;20003;-79
2021/01/10 05:19:31;;;;;;;20.67;11.32;;;;;;;;;;6331965;22;20074;-79
2021/01/10 05:22:05;;;;;;;19.88;11.20;;;;;;;;;;6303806;22;20017;-79
2021/01/10 05:24:31;;;;;;;18.20;10.52;;;;;;;;;;6302498;22;20456;-78
2021/01/10 05:26:57;;;;;;;18.42;10.40;;;;;;;;;;6303936;22;20336;-80
2021/01/10 05:29:27;;;;;;;16.27;9.80;;;;;;;;;;6332002;22;20002;-78
2021/01/10 05:31:53;;;;;;;15.55;9.60;;;;;;;;;;6332334;22;20015;-79
2021/01/10 05:34:20;;;;;;;16.30;9.60;;;;;;;;;;6331266;22;20022;-79
2021/01/10 05:36:46;;;;;;;16.70;9.43;;;;;;;;;;6303246;22;20011;-79
2021/01/10 05:39:20;;;;;;;17.48;10.23;;;;;;;;;;6303641;22;20003;-79
2021/01/10 05:41:54;;;;;;;16.55;10.13;;;;;;;;;;6303450;22;20110;-79
2021/01/10 05:44:20;;;;;;;16.33;9.73;;;;;;;;;;6303401;22;20549;-79
2021/01/10 05:46:46;;;;;;;16.20;9.80;;;;;;;;;;6331241;22;20098;-78
2021/01/10 05:49:17;;;;;;;19.75;10.73;;;;;;;;;;6304070;22;20007;-79
2021/01/10 05:51:43;;;;;;;14.85;8.82;;;;;;;;;;6303690;22;20504;-79
2021/01/10 05:54:09;;;;;;;14.93;9.13;;;;;;;;;;6330462;22;20003;-79
2021/01/10 05:56:36;;;;;;;15.70;8.95;;;;;;;;;;6303925;22;20082;-79
2021/01/10 05:59:02;;;;;;;15.10;9.15;;;;;;;;;;6331842;22;20856;-79
2021/01/10 06:01:28;;;;;;;16.25;9.52;;;;;;;;;;6331995;22;19995;-79
2021/01/10 06:03:54;;;;;;;14.48;9.35;;;;;;;;;;6303773;22;20003;-78
2021/01/10 06:06:20;;;;;;;17.95;9.65;;;;;;;;;;6331510;22;20003;-79
2021/01/10 06:08:46;;;;;;;16.45;9.00;;;;;;;;;;6303844;22;20010;-79
2021/01/10 06:11:20;;;;;;;16.25;10.00;;;;;;;;;;6331786;22;20007;-79
2021/01/10 06:13:55;;;;;;;16.58;9.52;;;;;;;;;;6303159;22;20149;-78
2021/01/10 06:16:23;;;;;;;15.70;9.00;;;;;;;;;;6330574;22;20025;-79
2021/01/10 06:18:51;;;;;;;15.73;9.48;;;;;;;;;;6331224;22;19999;-78
2021/01/10 06:21:18;;;;;;;16.17;9.60;;;;;;;;;;6330997;22;19999;-79
2021/01/10 06:23:46;;;;;;;17.42;9.68;;;;;;;;;;6302970;22;20007;-79
2021/01/10 06:26:13;;;;;;;16.33;10.10;;;;;;;;;;6330094;22;20076;-79
2021/01/10 06:28:40;;;;;;;14.63;8.77;;;;;;;;;;6302995;22;19999;-78
2021/01/10 06:31:07;;;;;;;15.52;8.98;;;;;;;;;;6303012;22;20002;-78
2021/01/10 06:33:34;;;;;;;16.70;8.73;;;;;;;;;;6303166;22;20014;-79
2021/01/10 06:36:07;;;;;;;14.88;8.68;;;;;;;;;;6302005;22;20006;-79
2021/01/10 06:38:37;;;;;;;15.55;8.73;;;;;;;;;;6303145;22;20034;-79
2021/01/10 06:41:12;;;;;;;15.65;8.80;;;;;;;;;;6330240;22;20002;-79
2021/01/10 06:43:40;;;;;;;14.80;8.48;;;;;;;;;;6302946;22;20276;-78
2021/01/10 06:46:06;;;;;;;14.25;8.50;;;;;;;;;;6329937;22;19995;-79
2021/01/10 06:48:33;;;;;;;12.82;7.85;;;;;;;;;;6303285;22;20092;-79
2021/01/10 06:51:02;;;;;;;14.80;7.18;;;;;;;;;;6322421;22;20381;-79
2021/01/10 06:53:28;;;;;;;10.70;6.90;;;;;;;;;;6330809;22;20006;-79
2021/01/10 06:55:54;;;;;;;11.90;6.78;;;;;;;;;;6330298;22;19999;-79
2021/01/10 06:58:20;;;;;;;11.43;6.65;;;;;;;;;;6330987;22;20031;-79
2021/01/10 07:00:53;;;;;;;11.38;6.47;;;;;;;;;;6331092;22;19995;-79
2021/01/10 07:03:19;;;;;;;11.02;6.15;;;;;;;;;;6329651;22;20435;-79
2021/01/10 07:05:57;;;;;;;10.30;6.18;;;;;;;;;;6328522;22;20419;-79
2021/01/10 07:08:43;;;;;;;12.13;7.00;;;;;;;;;;6329274;22;20335;-78
2021/01/10 07:11:21;;;;;;;11.25;6.32;;;;;;;;;;6330916;22;20068;-81
2021/01/10 07:14:10;;;;;;;12.57;7.35;;;;;;;;;;6331098;22;20007;-78
2021/01/10 07:16:36;;;;;;;9.60;5.65;;;;;;;;;;6322348;22;19999;-79
2021/01/10 07:19:04;;;;;;;43.33;19.50;;;;;;;;;;6330578;22;20003;-79
2021/01/10 07:21:33;;;;;;;12.43;7.13;;;;;;;;;;6331029;22;20066;-80
2021/01/10 07:24:21;;;;;;;11.23;6.57;;;;;;;;;;6330285;22;20047;-79
2021/01/10 07:26:47;;;;;;;9.57;5.68;;;;;;;;;;6328916;22;20420;-78
2021/01/10 07:29:26;;;;;;;20.42;11.35;;;;;;;;;;6330799;22;20018;-79
2021/01/10 07:31:55;;;;;;;17.23;10.75;;;;;;;;;;6330441;22;20002;-78
2021/01/10 07:34:21;;;;;;;11.52;6.70;;;;;;;;;;6328192;22;20435;-79
2021/01/10 07:36:47;;;;;;;12.10;7.07;;;;;;;;;;6330999;22;20074;-78
2021/01/10 07:39:14;;;;;;;11.83;7.30;;;;;;;;;;6330295;22;20074;-79
2021/01/10 07:41:40;;;;;;;9.33;5.93;;;;;;;;;;6329841;22;20254;-78
2021/01/10 07:44:06;;;;;;;11.43;7.10;;;;;;;;;;6328045;22;20002;-78
2021/01/10 07:46:54;;;;;;;8.75;5.63;;;;;;;;;;6330490;22;19999;-79
2021/01/10 07:49:21;;;;;;;8.73;5.00;;;;;;;;;;6326265;22;20452;-79
2021/01/10 07:51:47;;;;;;;8.57;5.18;;;;;;;;;;6330620;22;19995;-79
2021/01/10 07:54:14;;;;;;;10.45;6.50;;;;;;;;;;6301952;22;20007;-79
2021/01/10 07:56:40;;;;;;;10.00;5.57;;;;;;;;;;6330134;22;20010;-79
2021/01/10 07:59:16;;;;;;;9.32;5.57;;;;;;;;;;6303472;22;19998;-79
2021/01/10 08:01:49;;;;;;;9.00;5.07;;;;;;;;;;6304728;22;20538;-79
2021/01/10 08:04:32;;;;;;;10.93;5.55;;;;;;;;;;6304139;22;20010;-78
2021/01/10 08:06:59;;;;;;;10.10;6.22;;;;;;;;;;6332396;22;20093;-79
2021/01/10 08:09:32;;;;;;;9.48;4.63;;;;;;;;;;6305263;22;19999;-79
2021/01/10 08:11:59;;;;;;;8.73;5.38;;;;;;;;;;6303938;22;20006;-79
2021/01/10 08:14:25;;;;;;;6.80;4.53;;;;;;;;;;6331175;22;20002;-79
2021/01/10 08:16:51;;;;;;;8.82;5.95;;;;;;;;;;6332506;22;20435;-78
2021/01/10 08:19:17;;;;;;;10.32;6.03;;;;;;;;;;6330015;22;20006;-78
2021/01/10 08:21:44;;;;;;;11.70;5.32;;;;;;;;;;6304745;22;19999;-79
2021/01/10 08:24:10;;;;;;;12.95;7.60;;;;;;;;;;6331528;22;19995;-79
2021/01/10 08:26:40;;;;;;;13.25;8.20;;;;;;;;;;6304569;22;20006;-79
2021/01/10 08:29:06;;;;;;;14.70;9.27;;;;;;;;;;6303955;22;19998;-78
2021/01/10 08:31:33;;;;;;;9.50;5.70;;;;;;;;;;6332642;22;19999;-79
2021/01/10 08:33:59;;;;;;;13.90;8.50;;;;;;;;;;6303508;22;20010;-78
2021/01/10 08:36:25;;;;;;;13.52;8.45;;;;;;;;;;6304123;22;20072;-79
2021/01/10 08:38:51;;;;;;;15.73;9.38;;;;;;;;;;6332065;22;20052;-77
2021/01/10 08:41:37;;;;;;;16.02;9.57;;;;;;;;;;6304319;22;20003;-79
2021/01/10 08:44:04;;;;;;;12.77;7.55;;;;;;;;;;6304329;22;20329;-77
2021/01/10 08:46:34;;;;;;;12.18;7.45;;;;;;;;;;6304842;22;20608;-79
2021/01/10 08:49:00;;;;;;;14.55;7.90;;;;;;;;;;6304583;22;20010;-79
2021/01/10 08:51:32;;;;;;;12.93;7.90;;;;;;;;;;6331853;22;20644;-77
2021/01/10 08:54:09;;;;;;;13.10;7.95;;;;;;;;;;6332525;22;20031;-79
2021/01/10 08:56:35;;;;;;;10.48;6.30;;;;;;;;;;6304350;22;20056;-78
2021/01/10 08:59:01;;;;;;;11.93;7.40;;;;;;;;;;6304190;22;20050;-79
2021/01/10 09:01:28;;;;;;;12.15;7.10;;;;;;;;;;6332218;22;20003;-79
2021/01/10 09:03:57;;;;;;;10.40;6.87;;;;;;;;;;6331798;22;20037;-78
2021/01/10 09:06:30;;;;;;;10.68;6.45;;;;;;;;;;6330851;22;20041;-79
2021/01/10 09:09:00;;;;;;;14.13;7.43;;;;;;;;;;6304611;22;20037;-79
2021/01/10 09:11:28;;;;;;;14.18;7.78;;;;;;;;;;6304207;22;20006;-78
2021/01/10 09:13:57;;;;;;;15.55;8.00;;;;;;;;;;6332555;22;20136;-78
2021/01/10 09:16:25;;;;;;;13.30;7.25;;;;;;;;;;6305471;22;20007;-78
2021/01/10 09:18:52;;;;;;;13.60;8.90;;;;;;;;;;6332649;22;20002;-79
2021/01/10 09:21:25;;;;;;;12.55;8.80;;;;;;;;;;6304797;22;20075;-78
2021/01/10 09:23:53;;;;;;;8.98;5.93;;;;;;;;;;6333871;22;20029;-79
2021/01/10 09:26:30;;;;;;;10.65;6.68;;;;;;;;;;6303504;22;20010;-79
2021/01/10 09:28:56;;;;;;;12.27;7.63;;;;;;;;;;6331620;22;20079;-78
2021/01/10 09:31:43;;;;;;;12.27;7.25;;;;;;;;;;6304027;22;20015;-79
2021/01/10 09:34:09;;;;;;;12.70;7.32;;;;;;;;;;6330479;22;20007;-79
2021/01/10 09:36:35;;;;;;;14.35;7.43;;;;;;;;;;6304030;22;19999;-81
2021/01/10 09:39:01;;;;;;;11.93;7.13;;;;;;;;;;6303773;22;20006;-80
2021/01/10 09:41:28;;;;;;;11.43;6.40;;;;;;;;;;6304423;22;20082;-80
2021/01/10 09:43:55;;;;;;;10.32;6.32;;;;;;;;;;6304689;22;20021;-80
2021/01/10 09:46:21;;;;;;;;;;;;;;;;;;6332185;22;20034;-81
2021/01/10 09:48:51;;;;;;;10.60;6.18;;;;;;;;;;6304131;22;20372;-79
2021/01/10 09:51:17;;;;;;;7.93;5.22;;;;;;;;;;6331527;22;20011;-80
2021/01/10 09:53:47;;;;;;;8.52;5.35;;;;;;;;;;6304806;22;20014;-80
2021/01/10 09:56:14;;;;;;;10.77;6.60;;;;;;;;;;6330832;22;20097;-78
2021/01/10 09:58:40;;;;;;;10.77;7.15;;;;;;;;;;6304412;22;19995;-78
2021/01/10 10:01:08;;;;;;;12.75;6.75;;;;;;;;;;6332355;22;20318;-78
2021/01/10 10:03:35;;;;;;;9.90;7.05;;;;;;;;;;6305145;22;20013;-80
2021/01/10 10:06:01;;;;;;;16.77;7.50;;;;;;;;;;6331148;22;19995;-79
2021/01/10 10:08:27;;;;;;;10.10;6.40;;;;;;;;;;6304124;22;20014;-80
2021/01/10 10:10:53;;;;;;;11.32;5.93;;;;;;;;;;6332072;22;20014;-79
2021/01/10 10:13:31;;;;;;;9.10;6.25;;;;;;;;;;6305065;22;20014;-78
2021/01/10 10:15:57;;;;;;;13.38;5.40;;;;;;;;;;6331781;22;20032;-78
2021/01/10 10:18:31;;;;;;;8.13;5.63;;;;;;;;;;6305446;22;20007;-78
2021/01/10 10:20:57;;;;;;;8.90;6.10;;;;;;;;;;6304312;22;19998;-79
2021/01/10 10:23:23;;;;;;;11.43;6.22;;;;;;;;;;6305004;22;20107;-78
2021/01/10 10:25:49;;;;;;;8.75;4.78;;;;;;;;;;6331806;22;20024;-78
2021/01/10 10:28:16;;;;;;;9.30;5.75;;;;;;;;;;6304908;22;20007;-77
2021/01/10 10:30:46;;;;;;;8.23;5.38;;;;;;;;;;6331885;22;20006;-79
2021/01/10 10:33:12;;;;;;;6.55;4.22;;;;;;;;;;6332010;22;20124;-77
2021/01/10 10:35:39;;;;;;;7.68;4.63;;;;;;;;;;6302878;22;20017;-78
2021/01/10 10:38:06;;;;;;;7.53;4.90;;;;;;;;;;6305652;22;20042;-79
2021/01/10 10:40:32;;;;;;;7.00;4.30;;;;;;;;;;6304519;22;20006;-78
2021/01/10 10:42:58;;;;;;;6.60;4.47;;;;;;;;;;6304419;22;20002;-79
2021/01/10 10:45:25;;;;;;;8.13;4.85;;;;;;;;;;6331159;22;20001;-79
2021/01/10 10:47:51;;;;;;;7.40;4.70;;;;;;;;;;6332387;22;20007;-78
2021/01/10 10:50:18;;;;;;;7.25;4.53;;;;;;;;;;6314895;22;20010;-78
2021/01/10 10:52:44;;;;;;;7.50;4.50;;;;;;;;;;6331006;22;20014;-77
2021/01/10 10:55:12;;;;;;;7.20;4.47;;;;;;;;;;6330110;22;20654;-78
2021/01/10 10:57:38;;;;;;;10.27;5.18;;;;;;;;;;6330397;22;20010;-78
2021/01/10 11:00:05;;;;;;;7.00;4.13;;;;;;;;;;6329038;22;20817;-78
2021/01/10 11:02:31;;;;;;;6.35;3.80;;;;;;;;;;6331312;22;20003;-79
2021/01/10 11:04:57;;;;;;;6.88;3.65;;;;;;;;;;6330322;22;20367;-78
2021/01/10 11:07:23;;;;;;;5.70;3.88;;;;;;;;;;6331208;22;20010;-79
2021/01/10 11:09:49;;;;;;;6.28;3.63;;;;;;;;;;6330406;22;20014;-78
2021/01/10 11:12:15;;;;;;;5.72;3.80;;;;;;;;;;6329323;22;20022;-78
2021/01/10 11:14:42;;;;;;;5.88;3.85;;;;;;;;;;6331313;22;20089;-80
2021/01/10 11:17:09;;;;;;;5.32;3.28;;;;;;;;;;6330727;22;20026;-79
2021/01/10 11:19:35;;;;;;;4.40;3.17;;;;;;;;;;6329743;22;20003;-78
2021/01/10 11:22:03;;;;;;;6.60;4.22;;;;;;;;;;6331980;22;20244;-78
2021/01/10 11:24:29;;;;;;;8.88;4.88;;;;;;;;;;6330671;22;20010;-79
2021/01/10 11:26:55;;;;;;;23.60;5.15;;;;;;;;;;6333228;22;20030;-77
2021/01/10 11:29:21;;;;;;;9.10;4.22;;;;;;;;;;6331823;22;20504;-78
2021/01/10 11:31:47;;;;;;;5.70;3.85;;;;;;;;;;6332810;22;20072;-78
2021/01/10 11:34:14;;;;;;;5.20;3.45;;;;;;;;;;6332569;22;20007;-79
2021/01/10 11:36:47;;;;;;;5.07;3.42;;;;;;;;;;6331866;22;20035;-79
2021/01/10 11:39:14;;;;;;;9.52;4.18;;;;;;;;;;6333768;22;20476;-79
2021/01/10 11:41:44;;;;;;;5.68;3.97;;;;;;;;;;6333687;22;20424;-78
2021/01/10 11:44:10;;;;;;;8.80;4.45;;;;;;;;;;6331682;22;20806;-79
2021/01/10 11:46:36;;;;;;;6.93;4.20;;;;;;;;;;6333424;22;20083;-77
2021/01/10 11:49:02;;;;;;;6.40;3.85;;;;;;;;;;6332243;22;20458;-78
2021/01/10 11:51:30;;;;;;;6.20;4.07;;;;;;;;;;6332185;22;20068;-77
2021/01/10 11:53:56;;;;;;;8.65;4.30;;;;;;;;;;6331860;22;20613;-79
2021/01/10 11:56:22;;;;;;;8.75;4.70;;;;;;;;;;6331333;22;20002;-78
2021/01/10 11:58:48;;;;;;;7.32;4.15;;;;;;;;;;6332531;22;20007;-77
2021/01/10 12:01:14;;;;;;;6.80;4.70;;;;;;;;;;6330605;22;20006;-78
2021/01/10 12:03:42;;;;;;;6.72;4.70;;;;;;;;;;6331191;22;20010;-77
2021/01/10 12:06:08;;;;;;;6.60;4.28;;;;;;;;;;6330326;22;20084;-79
2021/01/10 12:08:34;;;;;;;6.97;4.65;;;;;;;;;;6332708;22;20382;-78
2021/01/10 12:11:01;;;;;;;9.25;4.95;;;;;;;;;;6333014;22;20034;-80
2021/01/10 12:13:27;;;;;;;8.27;4.95;;;;;;;;;;6338104;22;20014;-78
2021/01/10 12:15:55;;;;;;;7.28;4.68;;;;;;;;;;6336350;22;20342;-81
2021/01/10 12:18:21;;;;;;;7.90;4.68;;;;;;;;;;6336548;22;20021;-79
2021/01/10 12:20:47;;;;;;;7.80;4.90;;;;;;;;;;6335410;22;20439;-80
2021/01/10 12:23:13;;;;;;;10.23;6.13;;;;;;;;;;6334081;22;20003;-79
2021/01/10 12:25:39;;;;;;;8.25;5.40;;;;;;;;;;6334714;22;20003;-79
2021/01/10 12:28:05;;;;;;;7.43;4.80;;;;;;;;;;6334061;22;20002;-78
2021/01/10 12:30:32;;;;;;;8.05;4.70;;;;;;;;;;6333794;22;20048;-78
2021/01/10 12:32:58;;;;;;;7.40;4.80;;;;;;;;;;6331301;22;20006;-78
2021/01/10 12:35:24;;;;;;;7.97;5.55;;;;;;;;;;6330144;22;20057;-83
2021/01/10 12:37:51;;;;;;;10.57;5.85;;;;;;;;;;6334113;22;20624;-78
2021/01/10 12:40:17;;;;;;;9.73;5.75;;;;;;;;;;6336639;22;20015;-78
2021/01/10 12:42:43;;;;;;;9.80;6.20;;;;;;;;;;6330826;22;20101;-79
2021/01/10 12:45:11;;;;;;;7.80;5.32;;;;;;;;;;6333447;22;20428;-80
2021/01/10 12:47:37;;;;;;;;;;;;;;;;;;6331901;22;20049;-82
2021/01/10 12:50:04;;;;;;;7.97;5.43;;;;;;;;;;6331257;22;19926;-78
2021/01/10 12:52:30;;;;;;;8.25;5.80;;;;;;;;;;6331015;22;20410;-79
2021/01/10 12:54:56;;;;;;;7.65;5.70;;;;;;;;;;6332470;22;19995;-79
2021/01/10 12:57:25;;;;;;;9.68;6.60;;;;;;;;;;6331675;22;20331;-82
2021/01/10 12:59:51;;;;;;;8.13;5.68;;;;;;;;;;6339266;22;20024;-79
2021/01/10 13:02:17;;;;;;;8.27;6.15;;;;;;;;;;6346090;22;20078;-80
2021/01/10 13:04:43;;;;;;;9.63;6.63;;;;;;;;;;6337639;22;20011;-81
2021/01/10 13:07:09;;;;;;;10.20;6.88;;;;;;;;;;6332928;22;20504;-80
2021/01/10 13:09:40;;;;;;;10.52;7.10;;;;;;;;;;6333540;22;20007;-80
2021/01/10 13:12:08;;;;;;;10.27;6.75;;;;;;;;;;6335974;22;20006;-80
2021/01/10 13:14:35;;;;;;;;;;;;;;;;;;6334735;22;19998;-79
2021/01/10 13:17:02;;;;;;;12.48;6.53;;;;;;;;;;6334452;22;19902;-78
2021/01/10 13:19:28;;;;;;;10.60;6.25;;;;;;;;;;6332235;22;20028;-78
2021/01/10 13:21:54;;;;;;;10.05;6.25;;;;;;;;;;6331960;22;20029;-78
2021/01/10 13:24:20;;;;;;;10.00;6.38;;;;;;;;;;6333219;22;20427;-78
2021/01/10 13:26:46;;;;;;;9.25;5.80;;;;;;;;;;6333854;22;20018;-79
2021/01/10 13:29:12;;;;;;;10.63;5.88;;;;;;;;;;6332004;22;20424;-79
2021/01/10 13:31:39;;;;;;;9.15;5.30;;;;;;;;;;6335648;22;19998;-78
2021/01/10 13:34:06;;;;;;;9.65;6.20;;;;;;;;;;6331413;22;20010;-79
2021/01/10 13:36:33;;;;;;;10.30;6.22;;;;;;;;;;6333584;22;20002;-79
2021/01/10 13:38:59;;;;;;;10.63;6.18;;;;;;;;;;6332811;22;20021;-78
2021/01/10 13:41:25;;;;;;;11.95;7.22;;;;;;;;;;6330838;22;20004;-78
2021/01/10 13:43:51;;;;;;;12.00;7.75;;;;;;;;;;6332015;22;20006;-79
2021/01/10 13:46:22;;;;;;;10.57;6.70;;;;;;;;;;6333137;22;20339;-79
2021/01/10 13:48:49;;;;;;;12.02;7.25;;;;;;;;;;6332149;22;20056;-79
2021/01/10 13:51:16;;;;;;;10.93;7.22;;;;;;;;;;6329964;22;20019;-77
2021/01/10 13:53:42;;;;;;;11.13;7.30;;;;;;;;;;6329990;22;20018;-79
2021/01/10 13:56:34;;;;;;;12.23;8.00;;;;;;;;;;6330506;22;20003;-77
2021/01/10 13:59:00;;;;;;;12.00;7.72;;;;;;;;;;6328813;22;20033;-80
2021/01/10 14:01:30;;;;;;;10.10;7.32;;;;;;;;;;6332264;22;20049;-78
2021/01/10 14:03:56;;;;;;;12.00;6.95;;;;;;;;;;6330584;22;20009;-78
2021/01/10 14:06:23;;;;;;;10.85;6.88;;;;;;;;;;6329294;22;20331;-78
2021/01/10 14:08:49;;;;;;;11.88;6.90;;;;;;;;;;6329659;22;20011;-79
2021/01/10 14:11:18;;;;;;;11.90;7.22;;;;;;;;;;6329719;22;20087;-79
2021/01/10 14:13:48;;;;;;;10.63;7.10;;;;;;;;;;6329354;22;20439;-79
2021/01/10 14:16:16;;;;;;;10.73;6.82;;;;;;;;;;6331067;22;19995;-80
2021/01/10 14:18:42;;;;;;;12.30;7.30;;;;;;;;;;6329693;22;20030;-79
2021/01/10 14:21:08;;;;;;;11.20;7.03;;;;;;;;;;6331024;22;20424;-79
2021/01/10 14:23:37;;;;;;;13.15;7.70;;;;;;;;;;6331282;22;20014;-79
2021/01/10 14:26:03;;;;;;;10.20;6.85;;;;;;;;;;6330578;22;20442;-79
2021/01/10 14:28:29;;;;;;;11.20;7.55;;;;;;;;;;6328826;22;20041;-79
2021/01/10 14:30:55;;;;;;;12.20;7.82;;;;;;;;;;6330889;22;20388;-78